sensor_id;sensor_type;location;lat;lon;timestamp;pressure;altitude;pressure_sealevel;temperature;humidity
62800;BME280;48842;51.046;13.796;2023-08-08T00:00:35;100107.72;;;17.17;60.62
62800;BME280;48842;51.046;13.796;2023-08-08T00:03:00;100107.72;;;17.17;60.52
62800;BME280;48842;51.046;13.796;2023-08-08T00:05:25;100109.50;;;17.16;60.19
62800;BME280;48842;51.046;13.796;2023-08-08T00:07:51;100109.53;;;17.15;60.24
62800;BME280;48842;51.046;13.796;2023-08-08T00:10:16;100099.91;;;17.12;59.97
62800;BME280;48842;51.046;13.796;2023-08-08T00:12:41;100114.03;;;17.11;60.20
62800;BME280;48842;51.046;13.796;2023-08-08T00:15:07;100101.72;;;17.10;60.31
62800;BME280;48842;51.046;13.796;2023-08-08T00:17:32;100101.72;;;17.10;59.94
62800;BME280;48842;51.046;13.796;2023-08-08T00:19:57;100095.56;;;17.09;59.98
62800;BME280;48842;51.046;13.796;2023-08-08T00:22:23;100099.94;;;17.10;59.81
62800;BME280;48842;51.046;13.796;2023-08-08T00:24:48;100102.63;;;17.09;59.51
62800;BME280;48842;51.046;13.796;2023-08-08T00:27:13;100092.88;;;17.11;59.43
62800;BME280;48842;51.046;13.796;2023-08-08T00:29:39;100091.16;;;17.10;59.38
62800;BME280;48842;51.046;13.796;2023-08-08T00:32:04;100088.53;;;17.08;59.20
62800;BME280;48842;51.046;13.796;2023-08-08T00:34:29;100083.25;;;17.08;58.93
62800;BME280;48842;51.046;13.796;2023-08-08T00:36:55;100081.47;;;17.09;58.65
62800;BME280;48842;51.046;13.796;2023-08-08T00:39:20;100090.25;;;17.09;58.77
62800;BME280;48842;51.046;13.796;2023-08-08T00:41:45;100085.06;;;17.06;58.89
62800;BME280;48842;51.046;13.796;2023-08-08T00:44:11;100082.34;;;17.08;58.46
62800;BME280;48842;51.046;13.796;2023-08-08T00:46:37;100082.34;;;17.08;58.26
62800;BME280;48842;51.046;13.796;2023-08-08T00:49:02;100084.03;;;17.12;58.68
62800;BME280;48842;51.046;13.796;2023-08-08T00:51:27;100093.75;;;17.12;58.62
62800;BME280;48842;51.046;13.796;2023-08-08T00:53:54;100091.09;;;17.12;58.79
62800;BME280;48842;51.046;13.796;2023-08-08T00:56:19;100092.88;;;17.11;58.36
62800;BME280;48842;51.046;13.796;2023-08-08T00:58:45;100099.03;;;17.12;58.11
62800;BME280;48842;51.046;13.796;2023-08-08T01:01:12;100096.34;;;17.13;58.64
62800;BME280;48842;51.046;13.796;2023-08-08T01:03:37;100089.22;;;17.15;58.58
62800;BME280;48842;51.046;13.796;2023-08-08T01:06:13;100090.13;;;17.16;58.53
62800;BME280;48842;51.046;13.796;2023-08-08T01:08:46;100084.81;;;17.16;58.67
62800;BME280;48842;51.046;13.796;2023-08-08T01:11:14;100085.69;;;17.16;58.42
62800;BME280;48842;51.046;13.796;2023-08-08T01:13:41;100083.84;;;17.18;58.44
62800;BME280;48842;51.046;13.796;2023-08-08T01:16:07;100079.47;;;17.17;57.98
62800;BME280;48842;51.046;13.796;2023-08-08T01:18:33;100078.63;;;17.15;57.64
62800;BME280;48842;51.046;13.796;2023-08-08T01:20:59;100071.59;;;17.14;57.82
62800;BME280;48842;51.046;13.796;2023-08-08T01:23:29;100073.44;;;17.12;57.59
62800;BME280;48842;51.046;13.796;2023-08-08T01:25:56;100069.03;;;17.11;57.90
62800;BME280;48842;51.046;13.796;2023-08-08T01:28:23;100076.97;;;17.11;58.05
62800;BME280;48842;51.046;13.796;2023-08-08T01:30:48;100068.13;;;17.12;57.99
62800;BME280;48842;51.046;13.796;2023-08-08T01:33:14;100070.06;;;17.07;58.02
62800;BME280;48842;51.046;13.796;2023-08-08T01:35:43;100077.19;;;17.03;57.85
62800;BME280;48842;51.046;13.796;2023-08-08T01:38:11;100075.41;;;17.04;58.16
62800;BME280;48842;51.046;13.796;2023-08-08T01:40:39;100071.94;;;17.02;57.86
62800;BME280;48842;51.046;13.796;2023-08-08T01:43:06;100078.19;;;16.99;58.05
62800;BME280;48842;51.046;13.796;2023-08-08T01:45:32;100068.50;;;17.00;57.70
62800;BME280;48842;51.046;13.796;2023-08-08T01:47:59;100073.78;;;17.00;58.07
62800;BME280;48842;51.046;13.796;2023-08-08T01:50:24;100070.19;;;17.01;57.92
62800;BME280;48842;51.046;13.796;2023-08-08T01:52:50;100074.63;;;17.00;57.98
62800;BME280;48842;51.046;13.796;2023-08-08T01:55:16;100072.88;;;16.99;58.20
62800;BME280;48842;51.046;13.796;2023-08-08T01:57:41;100075.56;;;16.98;57.49
62800;BME280;48842;51.046;13.796;2023-08-08T02:00:07;100080.91;;;16.96;57.58
62800;BME280;48842;51.046;13.796;2023-08-08T02:02:33;100077.41;;;16.96;57.74
62800;BME280;48842;51.046;13.796;2023-08-08T02:04:58;100079.22;;;16.93;57.40
62800;BME280;48842;51.046;13.796;2023-08-08T02:07:23;100074.84;;;16.92;57.54
62800;BME280;48842;51.046;13.796;2023-08-08T02:09:48;100073.16;;;16.90;57.49
62800;BME280;48842;51.046;13.796;2023-08-08T02:12:16;100077.59;;;16.89;57.10
62800;BME280;48842;51.046;13.796;2023-08-08T02:14:41;100081.13;;;16.88;57.74
62800;BME280;48842;51.046;13.796;2023-08-08T02:17:06;100075.00;;;16.85;57.15
62800;BME280;48842;51.046;13.796;2023-08-08T02:19:31;100075.94;;;16.84;57.18
62800;BME280;48842;51.046;13.796;2023-08-08T02:21:57;100066.28;;;16.81;57.10
62800;BME280;48842;51.046;13.796;2023-08-08T02:24:22;100081.31;;;16.79;57.67
62800;BME280;48842;51.046;13.796;2023-08-08T02:26:47;100071.72;;;16.77;57.43
62800;BME280;48842;51.046;13.796;2023-08-08T02:29:13;100076.16;;;16.74;56.95
62800;BME280;48842;51.046;13.796;2023-08-08T02:31:38;100077.13;;;16.72;57.42
62800;BME280;48842;51.046;13.796;2023-08-08T02:34:04;100066.56;;;16.70;56.94
62800;BME280;48842;51.046;13.796;2023-08-08T02:36:29;100075.41;;;16.69;56.99
62800;BME280;48842;51.046;13.796;2023-08-08T02:38:54;100071.06;;;16.67;56.86
62800;BME280;48842;51.046;13.796;2023-08-08T02:41:20;100075.47;;;16.68;57.04
62800;BME280;48842;51.046;13.796;2023-08-08T02:43:45;100067.59;;;16.65;56.54
62800;BME280;48842;51.046;13.796;2023-08-08T02:46:11;100069.41;;;16.63;56.42
62800;BME280;48842;51.046;13.796;2023-08-08T02:48:36;100060.66;;;16.61;56.25
62800;BME280;48842;51.046;13.796;2023-08-08T02:51:01;100068.72;;;16.56;56.74
62800;BME280;48842;51.046;13.796;2023-08-08T02:53:26;100073.09;;;16.55;56.50
62800;BME280;48842;51.046;13.796;2023-08-08T02:55:52;100076.69;;;16.54;56.84
62800;BME280;48842;51.046;13.796;2023-08-08T02:58:17;100078.47;;;16.52;57.16
62800;BME280;48842;51.046;13.796;2023-08-08T03:00:43;100083.81;;;16.51;56.94
62800;BME280;48842;51.046;13.796;2023-08-08T03:03:08;100075.09;;;16.47;57.08
62800;BME280;48842;51.046;13.796;2023-08-08T03:05:33;100075.13;;;16.46;57.01
62800;BME280;48842;51.046;13.796;2023-08-08T03:07:59;100078.72;;;16.43;57.22
62800;BME280;48842;51.046;13.796;2023-08-08T03:10:24;100080.47;;;16.44;56.94
62800;BME280;48842;51.046;13.796;2023-08-08T03:12:49;100086.69;;;16.42;56.58
62800;BME280;48842;51.046;13.796;2023-08-08T03:15:15;100083.16;;;16.41;56.62
62800;BME280;48842;51.046;13.796;2023-08-08T03:17:40;100073.50;;;16.40;56.99
62800;BME280;48842;51.046;13.796;2023-08-08T03:20:06;100076.16;;;16.40;56.61
62800;BME280;48842;51.046;13.796;2023-08-08T03:22:32;100077.00;;;16.40;57.04
62800;BME280;48842;51.046;13.796;2023-08-08T03:24:57;100077.91;;;16.39;56.69
62800;BME280;48842;51.046;13.796;2023-08-08T03:27:23;100075.28;;;16.38;56.65
62800;BME280;48842;51.046;13.796;2023-08-08T03:29:49;100071.84;;;16.36;57.05
62800;BME280;48842;51.046;13.796;2023-08-08T03:32:14;100062.13;;;16.36;56.87
62800;BME280;48842;51.046;13.796;2023-08-08T03:34:39;100070.09;;;16.35;57.00
62800;BME280;48842;51.046;13.796;2023-08-08T03:37:05;100062.19;;;16.33;57.02
62800;BME280;48842;51.046;13.796;2023-08-08T03:39:30;100070.16;;;16.32;57.04
62800;BME280;48842;51.046;13.796;2023-08-08T03:41:55;100067.59;;;16.29;57.23
62800;BME280;48842;51.046;13.796;2023-08-08T03:44:21;100068.50;;;16.28;56.91
62800;BME280;48842;51.046;13.796;2023-08-08T03:46:46;100061.50;;;16.27;57.12
62800;BME280;48842;51.046;13.796;2023-08-08T03:49:12;100072.94;;;16.27;56.79
62800;BME280;48842;51.046;13.796;2023-08-08T03:51:37;100070.31;;;16.26;56.72
62800;BME280;48842;51.046;13.796;2023-08-08T03:54:02;100073.88;;;16.25;56.77
62800;BME280;48842;51.046;13.796;2023-08-08T03:56:28;100068.56;;;16.25;56.83
62800;BME280;48842;51.046;13.796;2023-08-08T03:58:54;100068.53;;;16.26;56.75
62800;BME280;48842;51.046;13.796;2023-08-08T04:01:19;100058.84;;;16.25;56.94
62800;BME280;48842;51.046;13.796;2023-08-08T04:03:44;100068.56;;;16.25;56.63
62800;BME280;48842;51.046;13.796;2023-08-08T04:06:10;100072.94;;;16.27;56.93
62800;BME280;48842;51.046;13.796;2023-08-08T04:08:35;100066.72;;;16.30;56.93
62800;BME280;48842;51.046;13.796;2023-08-08T04:11:00;100067.53;;;16.32;57.15
62800;BME280;48842;51.046;13.796;2023-08-08T04:13:27;100063.91;;;16.36;56.95
62800;BME280;48842;51.046;13.796;2023-08-08T04:15:52;100070.91;;;16.38;56.83
62800;BME280;48842;51.046;13.796;2023-08-08T04:18:18;100056.75;;;16.39;56.98
62800;BME280;48842;51.046;13.796;2023-08-08T04:20:45;100056.66;;;16.44;56.85
62800;BME280;48842;51.046;13.796;2023-08-08T04:23:11;100056.63;;;16.46;57.12
62800;BME280;48842;51.046;13.796;2023-08-08T04:25:37;100053.00;;;16.48;56.97
62800;BME280;48842;51.046;13.796;2023-08-08T04:28:02;100037.09;;;16.50;56.92
62800;BME280;48842;51.046;13.796;2023-08-08T04:30:27;100046.81;;;16.49;56.81
62800;BME280;48842;51.046;13.796;2023-08-08T04:32:53;100044.00;;;16.55;56.85
62800;BME280;48842;51.046;13.796;2023-08-08T04:35:18;100047.50;;;16.57;56.89
62800;BME280;48842;51.046;13.796;2023-08-08T04:37:43;100039.56;;;16.57;56.85
62800;BME280;48842;51.046;13.796;2023-08-08T04:40:09;100050.97;;;16.60;56.63
62800;BME280;48842;51.046;13.796;2023-08-08T04:42:34;100046.50;;;16.62;56.36
62800;BME280;48842;51.046;13.796;2023-08-08T04:45:00;100059.63;;;16.66;56.13
62800;BME280;48842;51.046;13.796;2023-08-08T04:47:25;100068.38;;;16.68;55.95
62800;BME280;48842;51.046;13.796;2023-08-08T04:49:50;100069.19;;;16.72;56.29
62800;BME280;48842;51.046;13.796;2023-08-08T04:52:16;100069.06;;;16.77;56.60
62800;BME280;48842;51.046;13.796;2023-08-08T04:54:41;100067.16;;;16.82;56.63
62800;BME280;48842;51.046;13.796;2023-08-08T04:57:06;100084.41;;;16.97;56.40
62800;BME280;48842;51.046;13.796;2023-08-08T04:59:32;100083.25;;;17.08;56.52
62800;BME280;48842;51.046;13.796;2023-08-08T05:01:57;100080.34;;;17.18;56.22
62800;BME280;48842;51.046;13.796;2023-08-08T05:04:23;100079.47;;;17.17;56.03
62800;BME280;48842;51.046;13.796;2023-08-08T05:06:48;100083.13;;;17.13;55.42
62800;BME280;48842;51.046;13.796;2023-08-08T05:09:13;100077.06;;;17.08;55.55
62800;BME280;48842;51.046;13.796;2023-08-08T05:11:39;100069.25;;;17.03;55.76
62800;BME280;48842;51.046;13.796;2023-08-08T05:14:04;100070.19;;;17.01;55.88
62800;BME280;48842;51.046;13.796;2023-08-08T05:16:29;100076.44;;;17.00;55.70
62800;BME280;48842;51.046;13.796;2023-08-08T05:18:55;100070.19;;;17.01;55.67
62800;BME280;48842;51.046;13.796;2023-08-08T05:21:21;100071.00;;;17.04;55.69
62800;BME280;48842;51.046;13.796;2023-08-08T05:23:46;100070.91;;;17.07;55.41
62800;BME280;48842;51.046;13.796;2023-08-08T05:26:11;100062.94;;;17.09;55.89
62800;BME280;48842;51.046;13.796;2023-08-08T05:28:37;100068.03;;;17.15;55.29
62800;BME280;48842;51.046;13.796;2023-08-08T05:31:02;100070.47;;;17.23;55.27
62800;BME280;48842;51.046;13.796;2023-08-08T05:33:28;100069.34;;;17.32;55.33
62800;BME280;48842;51.046;13.796;2023-08-08T05:35:53;100063.72;;;17.44;55.08
62800;BME280;48842;51.046;13.796;2023-08-08T05:38:19;100059.94;;;17.53;54.50
62800;BME280;48842;51.046;13.796;2023-08-08T05:40:44;100057.91;;;17.62;54.80
62800;BME280;48842;51.046;13.796;2023-08-08T05:43:09;100060.19;;;17.73;54.56
62800;BME280;48842;51.046;13.796;2023-08-08T05:45:34;100063.44;;;17.83;54.30
62800;BME280;48842;51.046;13.796;2023-08-08T05:48:00;100065.84;;;17.92;53.79
62800;BME280;48842;51.046;13.796;2023-08-08T05:50:26;100075.50;;;17.95;53.45
62800;BME280;48842;51.046;13.796;2023-08-08T05:52:51;100058.63;;;17.98;53.04
62800;BME280;48842;51.046;13.796;2023-08-08T05:55:18;100062.88;;;18.02;52.97
62800;BME280;48842;51.046;13.796;2023-08-08T05:57:43;100063.84;;;18.01;52.94
62800;BME280;48842;51.046;13.796;2023-08-08T06:00:09;100065.63;;;17.99;52.72
62800;BME280;48842;51.046;13.796;2023-08-08T06:02:37;100062.09;;;18.00;52.77
62800;BME280;48842;51.046;13.796;2023-08-08T06:05:04;100070.84;;;18.02;52.96
62800;BME280;48842;51.046;13.796;2023-08-08T06:07:30;100065.53;;;18.02;53.00
62800;BME280;48842;51.046;13.796;2023-08-08T06:09:55;100072.69;;;18.00;52.73
62800;BME280;48842;51.046;13.796;2023-08-08T06:12:20;100074.44;;;18.01;52.62
62800;BME280;48842;51.046;13.796;2023-08-08T06:14:46;100078.75;;;18.03;52.63
62800;BME280;48842;51.046;13.796;2023-08-08T06:17:11;100073.44;;;18.03;52.81
62800;BME280;48842;51.046;13.796;2023-08-08T06:19:37;100084.03;;;18.05;52.86
62800;BME280;48842;51.046;13.796;2023-08-08T06:22:02;100076.06;;;18.05;52.95
62800;BME280;48842;51.046;13.796;2023-08-08T06:24:28;100088.41;;;18.06;52.56
62800;BME280;48842;51.046;13.796;2023-08-08T06:26:53;100082.25;;;18.05;52.58
62800;BME280;48842;51.046;13.796;2023-08-08T06:29:19;100091.97;;;18.05;52.58
62800;BME280;48842;51.046;13.796;2023-08-08T06:31:44;100085.75;;;18.06;52.51
62800;BME280;48842;51.046;13.796;2023-08-08T06:34:09;100084.78;;;18.08;52.65
62800;BME280;48842;51.046;13.796;2023-08-08T06:36:35;100075.00;;;18.10;52.56
62800;BME280;48842;51.046;13.796;2023-08-08T06:39:00;100073.19;;;18.12;52.60
62800;BME280;48842;51.046;13.796;2023-08-08T06:41:25;100078.38;;;18.16;52.50
62800;BME280;48842;51.046;13.796;2023-08-08T06:43:51;100088.84;;;18.20;52.58
62800;BME280;48842;51.046;13.796;2023-08-08T06:46:16;100081.69;;;18.22;52.28
62800;BME280;48842;51.046;13.796;2023-08-08T06:48:42;100088.63;;;18.26;52.56
62800;BME280;48842;51.046;13.796;2023-08-08T06:51:07;100078.84;;;18.28;52.35
62800;BME280;48842;51.046;13.796;2023-08-08T06:53:33;100081.50;;;18.28;52.25
62800;BME280;48842;51.046;13.796;2023-08-08T06:55:58;100079.72;;;18.29;52.18
62800;BME280;48842;51.046;13.796;2023-08-08T06:58:23;100071.72;;;18.30;52.06
62800;BME280;48842;51.046;13.796;2023-08-08T07:00:50;100075.19;;;18.33;51.99
62800;BME280;48842;51.046;13.796;2023-08-08T07:03:15;100072.53;;;18.33;51.90
62800;BME280;48842;51.046;13.796;2023-08-08T07:05:41;100070.69;;;18.35;52.39
62800;BME280;48842;51.046;13.796;2023-08-08T07:08:06;100075.03;;;18.37;52.64
62800;BME280;48842;51.046;13.796;2023-08-08T07:10:33;100070.53;;;18.39;52.61
62800;BME280;48842;51.046;13.796;2023-08-08T07:12:59;100076.69;;;18.40;52.83
62800;BME280;48842;51.046;13.796;2023-08-08T07:15:24;100071.41;;;18.40;52.90
62800;BME280;48842;51.046;13.796;2023-08-08T07:17:49;100072.38;;;18.37;52.29
62800;BME280;48842;51.046;13.796;2023-08-08T07:20:15;100073.41;;;18.33;51.73
62800;BME280;48842;51.046;13.796;2023-08-08T07:22:40;100070.75;;;18.33;51.68
62800;BME280;48842;51.046;13.796;2023-08-08T07:25:06;100053.88;;;18.36;51.62
62800;BME280;48842;51.046;13.796;2023-08-08T07:27:32;100055.41;;;18.43;51.58
62800;BME280;48842;51.046;13.796;2023-08-08T07:29:57;100058.75;;;18.48;51.49
62800;BME280;48842;51.046;13.796;2023-08-08T07:32:22;100039.97;;;18.54;51.45
62800;BME280;48842;51.046;13.796;2023-08-08T07:34:48;100051.22;;;18.62;51.42
62800;BME280;48842;51.046;13.796;2023-08-08T07:37:14;100059.91;;;18.67;51.35
62800;BME280;48842;51.046;13.796;2023-08-08T07:39:39;100052.63;;;18.73;51.07
62800;BME280;48842;51.046;13.796;2023-08-08T07:42:04;100060.31;;;18.80;51.08
62800;BME280;48842;51.046;13.796;2023-08-08T07:44:30;100053.84;;;18.89;50.89
62800;BME280;48842;51.046;13.796;2023-08-08T07:46:57;100064.28;;;18.95;50.87
62800;BME280;48842;51.046;13.796;2023-08-08T07:49:22;100061.50;;;18.98;50.80
62800;BME280;48842;51.046;13.796;2023-08-08T07:51:47;100059.53;;;19.04;50.77
62800;BME280;48842;51.046;13.796;2023-08-08T07:54:12;100059.47;;;19.05;50.32
62800;BME280;48842;51.046;13.796;2023-08-08T07:56:38;100069.13;;;19.08;50.69
62800;BME280;48842;51.046;13.796;2023-08-08T07:59:03;100069.84;;;19.13;50.38
62800;BME280;48842;51.046;13.796;2023-08-08T08:01:29;100071.50;;;19.15;50.28
62800;BME280;48842;51.046;13.796;2023-08-08T08:03:54;100073.06;;;19.21;50.37
62800;BME280;48842;51.046;13.796;2023-08-08T08:06:20;100056.91;;;19.27;50.69
62800;BME280;48842;51.046;13.796;2023-08-08T08:08:45;100090.47;;;19.30;50.00
62800;BME280;48842;51.046;13.796;2023-08-08T08:11:10;100075.41;;;19.30;49.98
62800;BME280;48842;51.046;13.796;2023-08-08T08:13:37;100069.09;;;19.33;50.06
62800;BME280;48842;51.046;13.796;2023-08-08T08:16:04;100076.81;;;19.41;50.13
62800;BME280;48842;51.046;13.796;2023-08-08T08:18:29;100069.41;;;19.49;50.04
62800;BME280;48842;51.046;13.796;2023-08-08T08:20:54;100070.84;;;19.58;50.20
62800;BME280;48842;51.046;13.796;2023-08-08T08:23:20;100063.53;;;19.64;50.18
62800;BME280;48842;51.046;13.796;2023-08-08T08:25:45;100066.00;;;19.69;49.39
62800;BME280;48842;51.046;13.796;2023-08-08T08:28:10;100063.28;;;19.70;49.44
62800;BME280;48842;51.046;13.796;2023-08-08T08:30:36;100071.00;;;19.77;49.63
62800;BME280;48842;51.046;13.796;2023-08-08T08:33:03;100059.38;;;19.81;49.57
62800;BME280;48842;51.046;13.796;2023-08-08T08:35:30;100063.72;;;19.83;48.79
62800;BME280;48842;51.046;13.796;2023-08-08T08:37:55;100055.56;;;19.88;48.85
62800;BME280;48842;51.046;13.796;2023-08-08T08:40:21;100057.97;;;19.94;48.68
62800;BME280;48842;51.046;13.796;2023-08-08T08:42:47;100039.22;;;19.97;48.33
62800;BME280;48842;51.046;13.796;2023-08-08T08:45:13;100031.19;;;19.99;48.32
62800;BME280;48842;51.046;13.796;2023-08-08T08:47:40;100052.28;;;20.03;48.10
62800;BME280;48842;51.046;13.796;2023-08-08T08:50:07;100048.47;;;20.11;47.78
62800;BME280;48842;51.046;13.796;2023-08-08T08:52:33;100054.44;;;20.16;47.63
62800;BME280;48842;51.046;13.796;2023-08-08T08:54:58;100044.56;;;20.19;47.28
62800;BME280;48842;51.046;13.796;2023-08-08T08:57:23;100043.69;;;20.19;47.05
62800;BME280;48842;51.046;13.796;2023-08-08T08:59:49;100048.22;;;20.17;46.62
62800;BME280;48842;51.046;13.796;2023-08-08T09:02:14;100052.72;;;20.15;46.16
62800;BME280;48842;51.046;13.796;2023-08-08T09:04:40;100061.75;;;20.11;46.44
62800;BME280;48842;51.046;13.796;2023-08-08T09:07:06;100056.53;;;20.08;46.66
62800;BME280;48842;51.046;13.796;2023-08-08T09:09:32;100057.56;;;20.05;46.94
62800;BME280;48842;51.046;13.796;2023-08-08T09:11:57;100071.25;;;19.94;46.31
62800;BME280;48842;51.046;13.796;2023-08-08T09:14:25;100061.72;;;19.88;46.63
62800;BME280;48842;51.046;13.796;2023-08-08T09:16:52;100064.50;;;19.85;47.03
62800;BME280;48842;51.046;13.796;2023-08-08T09:19:19;100065.47;;;19.83;47.52
62800;BME280;48842;51.046;13.796;2023-08-08T09:21:46;100066.66;;;19.76;47.49
62800;BME280;48842;51.046;13.796;2023-08-08T09:24:11;100073.78;;;19.74;47.83
62800;BME280;48842;51.046;13.796;2023-08-08T09:26:39;100069.44;;;19.71;47.51
62800;BME280;48842;51.046;13.796;2023-08-08T09:29:04;100064.19;;;19.69;47.73
62800;BME280;48842;51.046;13.796;2023-08-08T09:31:30;100068.72;;;19.67;48.26
62800;BME280;48842;51.046;13.796;2023-08-08T09:33:58;100065.53;;;19.58;48.29
62800;BME280;48842;51.046;13.796;2023-08-08T09:36:23;100075.69;;;19.46;48.08
62800;BME280;48842;51.046;13.796;2023-08-08T09:38:49;100090.78;;;19.46;48.25
62800;BME280;48842;51.046;13.796;2023-08-08T09:41:14;100077.66;;;19.41;48.15
62800;BME280;48842;51.046;13.796;2023-08-08T09:43:44;100064.31;;;19.43;48.48
62800;BME280;48842;51.046;13.796;2023-08-08T09:46:10;100064.28;;;19.44;48.64
62800;BME280;48842;51.046;13.796;2023-08-08T09:48:35;100057.97;;;19.47;48.69
62800;BME280;48842;51.046;13.796;2023-08-08T09:51:03;100065.84;;;19.50;48.97
62800;BME280;48842;51.046;13.796;2023-08-08T09:53:29;100063.13;;;19.51;48.99
62800;BME280;48842;51.046;13.796;2023-08-08T09:55:55;100075.53;;;19.51;49.09
62800;BME280;48842;51.046;13.796;2023-08-08T09:58:21;100062.13;;;19.54;49.04
62800;BME280;48842;51.046;13.796;2023-08-08T10:00:49;100060.28;;;19.56;48.66
62800;BME280;48842;51.046;13.796;2023-08-08T10:03:16;100053.00;;;19.61;48.73
62800;BME280;48842;51.046;13.796;2023-08-08T10:05:42;100059.84;;;19.68;48.54
62800;BME280;48842;51.046;13.796;2023-08-08T10:08:07;100056.00;;;19.76;48.37
62800;BME280;48842;51.046;13.796;2023-08-08T10:10:33;100064.69;;;19.81;48.60
62800;BME280;48842;51.046;13.796;2023-08-08T10:12:59;100055.75;;;19.83;48.11
62800;BME280;48842;51.046;13.796;2023-08-08T10:15:26;100057.28;;;19.89;48.23
62800;BME280;48842;51.046;13.796;2023-08-08T10:17:57;100059.78;;;19.94;48.02
62800;BME280;48842;51.046;13.796;2023-08-08T10:20:24;100050.69;;;19.99;48.05
62800;BME280;48842;51.046;13.796;2023-08-08T10:22:52;100055.69;;;20.07;48.01
62800;BME280;48842;51.046;13.796;2023-08-08T10:25:25;100051.00;;;20.14;47.50
62800;BME280;48842;51.046;13.796;2023-08-08T10:28:20;100045.44;;;20.20;47.04
62800;BME280;48842;51.046;13.796;2023-08-08T10:30:46;100049.63;;;20.26;47.11
62800;BME280;48842;51.046;13.796;2023-08-08T10:33:19;100057.28;;;20.33;46.82
62800;BME280;48842;51.046;13.796;2023-08-08T10:36:01;100044.69;;;20.38;46.09
62800;BME280;48842;51.046;13.796;2023-08-08T10:38:38;100040.88;;;20.44;45.50
62800;BME280;48842;51.046;13.796;2023-08-08T10:41:04;100030.78;;;20.52;45.60
62800;BME280;48842;51.046;13.796;2023-08-08T10:43:30;100032.25;;;20.60;45.45
62800;BME280;48842;51.046;13.796;2023-08-08T10:46:02;100025.94;;;20.62;45.20
62800;BME280;48842;51.046;13.796;2023-08-08T10:48:28;100026.72;;;20.64;45.00
62800;BME280;48842;51.046;13.796;2023-08-08T10:50:57;100019.63;;;20.65;44.97
62800;BME280;48842;51.046;13.796;2023-08-08T10:53:26;100025.69;;;20.68;45.38
62800;BME280;48842;51.046;13.796;2023-08-08T10:56:03;100022.13;;;20.69;44.68
62800;BME280;48842;51.046;13.796;2023-08-08T10:58:41;100026.72;;;20.64;44.08
62800;BME280;48842;51.046;13.796;2023-08-08T11:01:07;100019.59;;;20.66;44.06
62800;BME280;48842;51.046;13.796;2023-08-08T11:03:35;100015.03;;;20.68;44.12
62800;BME280;48842;51.046;13.796;2023-08-08T11:06:02;100047.00;;;20.68;43.91
62800;BME280;48842;51.046;13.796;2023-08-08T11:08:29;100026.41;;;20.72;43.40
62800;BME280;48842;51.046;13.796;2023-08-08T11:10:56;100007.59;;;20.77;43.20
62800;BME280;48842;51.046;13.796;2023-08-08T11:13:21;100002.13;;;20.80;43.39
62800;BME280;48842;51.046;13.796;2023-08-08T11:15:46;100003.75;;;20.84;43.98
62800;BME280;48842;51.046;13.796;2023-08-08T11:18:12;99997.25;;;20.89;43.68
62800;BME280;48842;51.046;13.796;2023-08-08T11:20:38;99991.53;;;20.99;43.83
62800;BME280;48842;51.046;13.796;2023-08-08T11:23:04;99997.31;;;21.08;43.47
62800;BME280;48842;51.046;13.796;2023-08-08T11:25:31;99990.69;;;21.17;43.26
62800;BME280;48842;51.046;13.796;2023-08-08T11:27:57;99989.38;;;21.26;43.02
62800;BME280;48842;51.046;13.796;2023-08-08T11:30:24;99986.47;;;21.32;43.07
62800;BME280;48842;51.046;13.796;2023-08-08T11:32:54;99979.03;;;21.39;43.16
62800;BME280;48842;51.046;13.796;2023-08-08T11:35:22;99985.09;;;21.42;43.09
62800;BME280;48842;51.046;13.796;2023-08-08T11:37:49;99976.09;;;21.45;42.54
62800;BME280;48842;51.046;13.796;2023-08-08T11:40:16;99986.81;;;21.43;42.00
62800;BME280;48842;51.046;13.796;2023-08-08T11:42:43;99977.72;;;21.48;42.09
62800;BME280;48842;51.046;13.796;2023-08-08T11:45:10;99970.91;;;21.61;42.00
62800;BME280;48842;51.046;13.796;2023-08-08T11:47:38;99962.41;;;21.72;41.55
62800;BME280;48842;51.046;13.796;2023-08-08T11:50:10;99960.94;;;21.84;41.35
62800;BME280;48842;51.046;13.796;2023-08-08T11:52:40;99958.13;;;21.87;40.99
62800;BME280;48842;51.046;13.796;2023-08-08T11:55:07;99954.53;;;21.88;41.06
62800;BME280;48842;51.046;13.796;2023-08-08T11:57:35;99941.38;;;22.02;41.71
62800;BME280;48842;51.046;13.796;2023-08-08T12:00:00;99943.72;;;22.26;41.10
62800;BME280;48842;51.046;13.796;2023-08-08T12:02:27;99932.00;;;22.47;40.81
62800;BME280;48842;51.046;13.796;2023-08-08T12:04:53;99941.84;;;22.63;40.07
62800;BME280;48842;51.046;13.796;2023-08-08T12:07:18;99927.78;;;22.77;39.23
62800;BME280;48842;51.046;13.796;2023-08-08T12:09:47;99928.13;;;22.87;38.95
62800;BME280;48842;51.046;13.796;2023-08-08T12:12:13;99917.47;;;23.02;38.73
62800;BME280;48842;51.046;13.796;2023-08-08T12:14:39;99924.06;;;23.13;38.56
62800;BME280;48842;51.046;13.796;2023-08-08T12:17:07;99924.59;;;23.20;38.47
62800;BME280;48842;51.046;13.796;2023-08-08T12:19:34;99911.69;;;23.28;37.29
62800;BME280;48842;51.046;13.796;2023-08-08T12:21:59;99909.94;;;23.27;37.55
62800;BME280;48842;51.046;13.796;2023-08-08T12:24:24;99922.19;;;23.15;36.78
62800;BME280;48842;51.046;13.796;2023-08-08T12:26:50;99916.69;;;23.00;36.99
62800;BME280;48842;51.046;13.796;2023-08-08T12:29:15;99912.25;;;22.83;36.63
62800;BME280;48842;51.046;13.796;2023-08-08T12:31:40;99910.88;;;22.76;36.85
62800;BME280;48842;51.046;13.796;2023-08-08T12:34:06;99903.66;;;22.78;37.11